Saugatuck, Connecticut
Current Conditions -  °F | °C
As of 12:52 AM on Thursday 18 Dec 2014 (Local Time) from KBDR Reporting Station
Overcast Overcast  
Wind Chill: 36°   Ceiling: 7000
Heat Index: 41°   Visibility: 10mi
Dew Point: 31°   Wind: 8mph
Humidity: 67%   Direction: 280°W
Pressure: 29.83"   Gusts: NA
Location:  41.1454°N, 73.3462°W
Report Text: KBDR 180552Z 28007KT 10SM SCT045 OVC070 05/M01 A2983 RMK AO2 SLP101 T00501006 10083 20050 58006
Loading
Personal Weather Stations






























Interactive Weather Map New forecast layout! Learn more

10-Day Weather Forecast

Advertisements
Track Severe Weather on mobile